LETO/TOJ METAR and TAF weather

Enter ICAO airport designator
Station Type Date Time Source
LETO METAR 2021/08/02 03:00 UTC NOAA

LETO 020300Z 05003KT 010V100 CAVOK 14/06 Q1016 NOSIG


Station Type Date Time Source
LETO Decoded METAR 2021/08/02 03:00 UTC NOAA

Madrid / Torrejon, Spain (LETO) 40-29N 003-27W 611M
Aug 01, 2021 - 11:00 PM EDT / 2021.08.02 0300 UTC
Wind: from the NE (050 degrees) at 3 MPH (3 KT) (direction variable):0
Visibility: greater than 7 mile(s):0
Temperature: 57 F (14 C)
Dew Point: 42 F (6 C)
Relative Humidity: 58%
Pressure (altimeter): 30.00 in. Hg (1016 hPa)
ob: LETO 020300Z 05003KT 010V100 CAVOK 14/06 Q1016 NOSIG
cycle: 3

Station Type Date Time Source
LETO TAF 2021/08/01 18:27 UTC NOAA

TAF LETO 011700Z 0118/0218 VRB05KT CAVOK TX30/0216Z TN12/0206Z PROB30
TEMPO 0214/0218 FEW040TCU

Example: see airport list